Time;durP1;ratioP1;P1;durP2;ratioP2;P2;SDS_P1;SDS_P2;PMS_P1;PMS_P2;Temp;Humidity;BMP_temperature;BMP_pressure;BME280_temperature;BME280_humidity;BME280_pressure;Samples;Min_cycle;Max_cycle;Signal;HPM_P1;HPM_P2
2022/01/03 00:00:58;;;;;;;8.53;5.00;;;;;;;-0.54;69.93;100554.04;1761488;81;21225;-59
2022/01/03 00:04:05;;;;;;;9.90;5.62;;;;;;;-0.52;70.35;100564.19;1769352;80;21196;-58
2022/01/03 00:07:11;;;;;;;8.85;5.25;;;;;;;-0.54;70.54;100551.35;1747756;81;21351;-59
2022/01/03 00:10:18;;;;;;;7.22;5.33;;;;;;;-0.59;70.81;100553.48;1770094;80;21406;-59
2022/01/03 00:13:26;;;;;;;10.65;5.40;;;;;;;-0.61;71.18;100554.05;1785370;80;21185;-60
2022/01/03 00:16:34;;;;;;;9.38;5.70;;;;;;;-0.63;71.37;100543.88;1760015;80;21205;-59
2022/01/03 00:19:40;;;;;;;9.03;5.60;;;;;;;-0.69;71.58;100543.81;1772195;81;21354;-58
2022/01/03 00:23:12;;;;;;;8.73;5.45;;;;;;;-0.75;71.88;100538.85;1773479;80;21177;-60
2022/01/03 00:26:16;;;;;;;9.78;5.60;;;;;;;-0.78;72.12;100526.09;1760211;81;21169;-58
2022/01/03 00:29:26;;;;;;;9.08;6.00;;;;;;;-0.81;72.42;100528.98;1775545;80;21149;-58
2022/01/03 00:32:35;;;;;;;8.25;5.33;;;;;;;-0.85;72.72;100515.35;1779946;80;21237;-58
2022/01/03 00:35:45;;;;;;;8.60;5.10;;;;;;;-0.88;72.91;100519.12;1792043;79;22007;-57
2022/01/03 00:38:50;;;;;;;7.95;5.03;;;;;;;-0.93;73.24;100498.88;1802283;79;21157;-57
2022/01/03 00:41:58;;;;;;;8.03;5.00;;;;;;;-0.97;73.50;100494.20;1757964;80;21319;-57
2022/01/03 00:45:04;;;;;;;9.35;4.83;;;;;;;-1.01;73.71;100483.73;1748910;81;21220;-58
2022/01/03 00:48:18;;;;;;;8.20;4.85;;;;;;;-1.00;73.96;100468.02;1752676;81;21205;-57
2022/01/03 00:51:27;;;;;;;8.68;5.00;;;;;;;-1.04;74.16;100450.37;1708750;84;21437;-58
2022/01/03 00:54:33;;;;;;;7.97;4.72;;;;;;;-1.07;74.30;100447.89;1737007;82;21793;-59
2022/01/03 00:58:03;;;;;;;8.25;5.00;;;;;;;-1.09;74.54;100443.09;1706276;82;21220;-59
2022/01/03 01:01:12;;;;;;;11.15;4.85;;;;;;;-1.09;74.81;100442.62;1722585;82;21414;-57
2022/01/03 01:04:17;;;;;;;7.40;4.95;;;;;;;-1.02;75.00;100442.61;1688190;83;21295;-57
2022/01/03 01:07:24;;;;;;;10.05;5.97;;;;;;;-0.99;74.97;100436.16;1734930;82;21424;-58
2022/01/03 01:10:39;;;;;;;8.38;5.35;;;;;;;-0.97;75.03;100424.36;1704076;83;21213;-57
2022/01/03 01:13:46;;;;;;;10.82;5.12;;;;;;;-0.92;75.14;100425.39;1735212;82;21322;-56
2022/01/03 01:16:52;;;;;;;10.82;4.97;;;;;;;-0.90;75.13;100403.30;1704079;83;21394;-57
2022/01/03 01:19:59;;;;;;;7.95;4.83;;;;;;;-0.89;75.11;100395.64;1734968;82;21351;-57
2022/01/03 01:23:06;;;;;;;7.20;4.35;;;;;;;-0.88;75.20;100378.06;1734827;82;21196;-57
2022/01/03 01:29:41;;;;;;;6.75;4.70;;;;;;;-0.91;75.21;100350.06;1735364;82;21402;-57
2022/01/03 01:32:57;;;;;;;5.92;4.30;;;;;;;-0.92;75.52;100338.09;1708511;84;21474;-57
2022/01/03 01:36:07;;;;;;;7.33;4.58;;;;;;;-0.92;75.53;100330.87;1745053;82;21287;-58
2022/01/03 01:39:14;;;;;;;6.00;4.65;;;;;;;-0.94;75.79;100309.12;1704698;83;21232;-56
2022/01/03 01:42:23;;;;;;;6.65;4.75;;;;;;;-0.97;75.83;100301.27;1735555;82;21200;-56
2022/01/03 01:45:32;;;;;;;6.05;4.70;;;;;;;-1.00;75.98;100292.08;1686457;83;21252;-56
2022/01/03 01:48:44;;;;;;;7.20;4.78;;;;;;;-1.00;76.26;100279.48;1712815;82;21974;-56
2022/01/03 01:51:58;;;;;;;7.50;5.00;;;;;;;-0.99;76.34;100269.14;1742792;81;21749;-56
2022/01/03 01:55:07;;;;;;;7.62;5.10;;;;;;;-0.93;76.50;100262.47;1744591;81;21347;-56
2022/01/03 01:58:23;;;;;;;8.00;4.67;;;;;;;-0.94;76.30;100258.95;1737434;82;21955;-55
2022/01/03 02:01:28;;;;;;;7.05;4.67;;;;;;;-1.01;76.22;100246.02;1746616;80;21253;-56
2022/01/03 02:04:52;;;;;;;7.78;5.35;;;;;;;-1.12;76.23;100235.17;1737517;82;21910;-58
2022/01/03 02:08:26;;;;;;;7.30;5.58;;;;;;;-1.18;76.39;100230.23;1736744;82;21209;-57
2022/01/03 02:12:02;;;;;;;10.48;5.80;;;;;;;-1.19;76.69;100208.38;1738268;81;21378;-57
2022/01/03 02:15:10;;;;;;;7.78;5.40;;;;;;;-1.19;76.79;100182.87;1739244;81;21347;-56
2022/01/03 02:18:16;;;;;;;8.58;5.33;;;;;;;-1.28;77.18;100163.39;1742242;82;21342;-56
2022/01/03 02:21:22;;;;;;;8.95;5.60;;;;;;;-1.37;77.75;100150.11;1708657;84;21431;-55
2022/01/03 02:24:33;;;;;;;8.18;5.35;;;;;;;-1.48;78.09;100121.81;1723763;82;21200;-55
2022/01/03 02:27:38;;;;;;;9.25;5.80;;;;;;;-1.60;78.55;100097.16;1779944;79;21240;-55
2022/01/03 02:30:44;;;;;;;10.18;5.28;;;;;;;-1.67;79.23;100095.41;1755563;80;21252;-55
2022/01/03 02:33:49;;;;;;;11.90;6.25;;;;;;;-1.66;79.76;100072.97;1747595;80;21212;-56
2022/01/03 02:36:56;;;;;;;10.55;6.47;;;;;;;-1.61;79.91;100077.54;1708765;83;21359;-56
2022/01/03 02:40:04;;;;;;;11.88;7.17;;;;;;;-1.60;80.01;100063.62;1779048;80;21354;-56
2022/01/03 02:43:10;;;;;;;12.35;7.50;;;;;;;-1.53;80.45;100066.26;1747148;82;21220;-56
2022/01/03 02:46:16;;;;;;;12.50;7.58;;;;;;;-1.45;80.46;100058.53;1747141;81;21205;-56
2022/01/03 02:49:22;;;;;;;14.05;8.48;;;;;;;-1.38;80.30;100036.14;1730755;82;21383;-57
2022/01/03 02:52:27;;;;;;;13.60;8.13;;;;;;;-1.32;80.21;100026.30;1731341;81;21330;-56
2022/01/03 02:55:32;;;;;;;15.48;10.53;;;;;;;-1.34;79.88;100009.44;1737469;82;21402;-55
2022/01/03 02:58:41;;;;;;;17.25;10.13;;;;;;;-1.42;79.70;100000.60;1737564;81;21367;-56
2022/01/03 03:01:49;;;;;;;22.00;11.73;;;;;;;-1.48;79.81;99989.45;1737504;82;21423;-55
2022/01/03 03:05:05;;;;;;;23.05;12.35;;;;;;;-1.47;79.86;99966.52;1737620;82;21201;-57
2022/01/03 03:08:11;;;;;;;21.55;11.43;;;;;;;-1.54;81.20;99954.03;1737638;82;21718;-57
2022/01/03 03:11:20;;;;;;;17.95;12.20;;;;;;;-1.55;83.36;99928.65;1739200;81;21900;-56
2022/01/03 03:14:28;;;;;;;20.27;11.73;;;;;;;-1.57;84.59;99936.81;1738119;81;21205;-57
2022/01/03 03:17:34;;;;;;;17.82;11.00;;;;;;;-1.51;85.41;99917.58;1740457;81;21447;-58
2022/01/03 03:20:43;;;;;;;16.97;11.18;;;;;;;-1.44;85.91;99914.47;1738371;81;21248;-57
2022/01/03 03:23:48;;;;;;;24.00;12.05;;;;;;;-1.37;86.02;99880.83;1737452;82;21861;-58
2022/01/03 03:26:55;;;;;;;18.00;11.88;;;;;;;-1.30;85.89;99871.36;1733093;81;21249;-57
2022/01/03 03:30:03;;;;;;;18.52;11.38;;;;;;;-1.23;85.59;99857.84;1679877;85;21235;-57
2022/01/03 03:33:17;;;;;;;17.37;11.97;;;;;;;-1.16;85.59;99841.17;1702145;83;21385;-57
2022/01/03 03:36:24;;;;;;;14.53;9.83;;;;;;;-1.03;85.52;99829.85;1777830;80;21235;-56
2022/01/03 03:39:33;;;;;;;18.62;11.90;;;;;;;-0.94;85.05;99820.25;1778778;80;21228;-57
2022/01/03 03:42:41;;;;;;;16.57;11.53;;;;;;;-0.91;84.55;99810.61;1771321;81;21362;-56
2022/01/03 03:45:49;;;;;;;18.52;11.48;;;;;;;-0.85;84.45;99790.84;1779833;80;21212;-57
2022/01/03 03:48:59;;;;;;;17.10;11.65;;;;;;;-0.77;84.19;99793.80;1732743;80;21824;-57
2022/01/03 03:52:06;;;;;;;19.35;11.38;;;;;;;-0.64;84.10;99782.47;1703140;84;21906;-56
2022/01/03 03:55:14;;;;;;;16.90;11.22;;;;;;;-0.53;83.74;99774.89;1712151;84;21520;-56
2022/01/03 03:58:20;;;;;;;18.02;10.68;;;;;;;-0.47;83.49;99783.80;1702985;83;21630;-56
2022/01/03 04:01:26;;;;;;;16.57;10.95;;;;;;;-0.37;83.38;99772.22;1702846;84;21380;-55
2022/01/03 04:04:35;;;;;;;16.25;11.03;;;;;;;-0.33;82.92;99766.95;1673033;86;21202;-56
2022/01/03 04:07:39;;;;;;;17.12;11.22;;;;;;;-0.32;82.71;99757.89;1713788;83;21373;-56
2022/01/03 04:10:49;;;;;;;19.20;11.63;;;;;;;-0.26;82.72;99740.44;1707593;84;21386;-55
2022/01/03 04:14:01;;;;;;;17.77;11.25;;;;;;;-0.25;82.49;99713.90;1715043;83;21235;-55
2022/01/03 04:17:09;;;;;;;18.42;12.50;;;;;;;-0.30;82.37;99710.72;1706486;83;21378;-55
2022/01/03 04:20:18;;;;;;;18.30;11.57;;;;;;;-0.26;82.61;99682.63;1713209;83;21417;-58
2022/01/03 04:23:23;;;;;;;19.05;11.50;;;;;;;-0.20;82.81;99680.77;1746662;82;21349;-56
2022/01/03 04:26:30;;;;;;;20.57;12.13;;;;;;;-0.15;82.98;99659.74;1746246;82;21779;-55
2022/01/03 04:29:35;;;;;;;21.15;13.43;;;;;;;-0.10;83.04;99644.95;1746071;81;21307;-56
2022/01/03 04:32:42;;;;;;;16.23;11.55;;;;;;;-0.05;83.24;99639.19;1724305;82;21405;-56
2022/01/03 04:35:48;;;;;;;18.27;12.80;;;;;;;0.03;83.36;99636.71;1745539;82;21279;-56
2022/01/03 04:38:57;;;;;;;17.48;11.55;;;;;;;0.08;83.36;99634.98;1712770;83;21350;-56
2022/01/03 04:42:03;;;;;;;16.32;11.33;;;;;;;0.11;83.49;99619.92;1705176;84;21401;-55
2022/01/03 04:45:13;;;;;;;20.27;12.03;;;;;;;0.17;83.73;99614.88;1729433;82;21223;-55
2022/01/03 04:48:21;;;;;;;18.10;11.28;;;;;;;0.25;83.94;99611.05;1722731;82;21743;-55
2022/01/03 04:51:26;;;;;;;16.52;10.78;;;;;;;0.35;84.09;99598.50;1743945;80;21303;-55
2022/01/03 04:54:35;;;;;;;17.82;11.15;;;;;;;0.42;84.15;99592.97;1749781;81;21767;-55
2022/01/03 04:57:40;;;;;;;17.98;11.68;;;;;;;0.48;84.31;99578.97;1737959;82;21901;-55
2022/01/03 05:00:48;;;;;;;15.98;10.20;;;;;;;0.58;84.45;99587.11;1742693;81;21653;-54
2022/01/03 05:03:57;;;;;;;17.55;11.78;;;;;;;0.64;84.57;99582.53;1737700;82;21260;-54
2022/01/03 05:07:02;;;;;;;15.00;11.12;;;;;;;0.69;84.65;99575.77;1737444;82;21410;-54
2022/01/03 05:10:09;;;;;;;16.77;10.93;;;;;;;0.76;84.84;99585.01;1737502;82;21335;-54
2022/01/03 05:13:15;;;;;;;15.93;9.98;;;;;;;0.84;85.02;99578.46;1738514;82;21197;-55
2022/01/03 05:16:20;;;;;;;15.65;10.08;;;;;;;0.92;85.11;99575.95;1737819;82;21371;-53
2022/01/03 05:19:26;;;;;;;14.95;10.28;;;;;;;0.99;85.24;99574.44;1737652;82;21356;-54
2022/01/03 05:22:31;;;;;;;14.40;9.90;;;;;;;1.06;85.36;99571.54;1737906;82;21359;-55
2022/01/03 05:25:37;;;;;;;16.95;10.18;;;;;;;1.17;85.50;99573.30;1737182;82;21256;-54
2022/01/03 05:28:45;;;;;;;15.45;9.63;;;;;;;1.24;85.51;99574.44;1737625;82;21374;-54
2022/01/03 05:31:52;;;;;;;14.95;9.05;;;;;;;1.31;85.61;99562.13;1737156;82;21339;-52
2022/01/03 05:34:59;;;;;;;16.50;9.38;;;;;;;1.39;85.74;99567.20;1747838;81;21694;-51
2022/01/03 05:38:04;;;;;;;15.58;9.55;;;;;;;1.47;85.82;99549.81;1751756;81;21181;-50
2022/01/03 05:41:10;;;;;;;14.45;9.75;;;;;;;1.54;85.90;99542.88;1742233;81;21879;-50
2022/01/03 05:44:15;;;;;;;17.67;9.83;;;;;;;1.62;85.96;99527.86;1747545;81;21711;-49
2022/01/03 05:47:20;;;;;;;15.10;9.48;;;;;;;1.67;86.00;99530.96;1737419;82;21438;-49
2022/01/03 05:50:29;;;;;;;13.40;9.85;;;;;;;1.71;86.09;99536.45;1737523;82;21217;-48
2022/01/03 05:53:34;;;;;;;12.47;8.35;;;;;;;1.78;86.29;99538.43;1746278;80;21217;-48
2022/01/03 05:56:39;;;;;;;12.25;7.70;;;;;;;1.87;86.37;99529.48;1737807;82;21350;-48
2022/01/03 05:59:48;;;;;;;10.55;7.00;;;;;;;1.93;86.35;99522.67;1747557;82;21335;-48
2022/01/03 06:02:58;;;;;;;10.13;7.03;;;;;;;1.98;86.37;99509.12;1747505;82;21343;-48
2022/01/03 06:06:18;;;;;;;10.60;7.25;;;;;;;2.04;86.37;99494.19;1739950;82;21753;-48
2022/01/03 06:09:13;;;;;;;12.45;7.37;;;;;;;2.05;86.30;99478.34;1744758;82;21219;-48
2022/01/03 06:12:18;;;;;;;9.30;6.37;;;;;;;2.09;86.30;99468.97;1759103;80;21358;-49
2022/01/03 06:15:25;;;;;;;9.88;6.70;;;;;;;2.14;86.26;99450.50;1771260;81;21363;-49
2022/01/03 06:18:32;;;;;;;10.72;6.22;;;;;;;2.15;86.21;99438.70;1745478;81;21339;-49
2022/01/03 06:21:41;;;;;;;10.30;6.92;;;;;;;2.17;86.25;99486.65;1762376;80;21366;-49
2022/01/03 06:24:47;;;;;;;12.05;7.53;;;;;;;2.20;86.29;99480.95;1712425;82;21259;-49
2022/01/03 06:27:56;;;;;;;9.05;6.65;;;;;;;2.23;86.22;99470.73;1801350;79;21348;-50
2022/01/03 06:31:07;;;;;;;11.18;7.65;;;;;;;2.25;86.26;99451.16;1795501;79;21487;-50
2022/01/03 06:34:15;;;;;;;10.93;7.03;;;;;;;2.32;86.29;99459.53;1782538;80;21677;-49
2022/01/03 06:37:21;;;;;;;11.20;6.90;;;;;;;2.34;86.25;99450.80;1784313;79;21188;-49
2022/01/03 06:40:30;;;;;;;10.60;7.12;;;;;;;2.38;86.23;99454.39;1782390;80;21211;-49
2022/01/03 06:43:36;;;;;;;11.88;7.83;;;;;;;2.45;86.29;99441.16;1782362;80;21187;-51
2022/01/03 06:46:41;;;;;;;11.88;7.90;;;;;;;2.52;86.31;99439.06;1782848;79;21214;-49
2022/01/03 06:49:47;;;;;;;13.32;8.38;;;;;;;2.55;86.16;99432.01;1782776;80;21776;-49
2022/01/03 06:52:55;;;;;;;12.60;7.30;;;;;;;2.60;86.15;99426.19;1727382;80;21432;-49
2022/01/03 06:56:03;;;;;;;11.48;7.70;;;;;;;2.66;86.08;99419.66;1715062;83;21374;-49
2022/01/03 06:59:12;;;;;;;11.03;7.53;;;;;;;2.71;85.97;99407.08;1736044;82;22106;-49
2022/01/03 07:02:21;;;;;;;11.45;8.38;;;;;;;2.72;85.83;99400.66;1736592;82;21204;-50
2022/01/03 07:05:26;;;;;;;11.45;7.83;;;;;;;2.74;85.76;99403.55;1746982;80;21290;-49
2022/01/03 07:08:34;;;;;;;13.35;8.38;;;;;;;2.78;85.68;99393.30;1740305;82;21355;-49
2022/01/03 07:11:41;;;;;;;14.43;8.85;;;;;;;2.79;85.48;99381.52;1739617;82;21628;-49
2022/01/03 07:21:19;;;;;;;13.10;8.77;;;;;;;2.83;85.35;99357.23;1766876;81;21271;-48
2022/01/03 07:24:25;;;;;;;11.95;7.62;;;;;;;2.89;85.46;99348.50;1770235;80;21860;-48
2022/01/03 07:27:32;;;;;;;10.80;7.70;;;;;;;2.96;85.39;99332.03;1775365;79;21185;-48
2022/01/03 07:30:38;;;;;;;11.05;7.33;;;;;;;2.96;85.16;99341.01;1765942;80;21185;-48
2022/01/03 07:33:46;;;;;;;13.93;8.40;;;;;;;2.98;85.08;99336.80;1765883;80;21209;-49
2022/01/03 07:36:53;;;;;;;13.28;8.13;;;;;;;3.03;85.10;99323.64;1707900;83;21199;-48
2022/01/03 07:39:57;;;;;;;11.38;7.83;;;;;;;3.05;84.99;99321.64;1725403;82;21201;-49
2022/01/03 07:43:05;;;;;;;11.25;8.13;;;;;;;3.06;84.90;99309.81;1732114;82;21658;-49
2022/01/03 07:46:12;;;;;;;11.65;7.80;;;;;;;3.08;84.95;99306.46;1732768;81;21212;-49
2022/01/03 07:49:18;;;;;;;11.50;8.30;;;;;;;3.13;85.08;99296.53;1754102;81;21390;-49
2022/01/03 07:52:24;;;;;;;12.15;7.47;;;;;;;3.18;85.06;99288.80;1766883;80;21200;-49
2022/01/03 07:55:29;;;;;;;13.65;8.35;;;;;;;3.21;85.08;99277.67;1775429;80;21361;-50
2022/01/03 07:58:34;;;;;;;13.53;8.80;;;;;;;3.20;84.98;99274.15;1784015;80;21245;-50
2022/01/03 08:01:40;;;;;;;13.72;8.25;;;;;;;3.24;85.06;99266.05;1784195;80;21211;-50
2022/01/03 08:04:50;;;;;;;14.50;9.20;;;;;;;3.31;85.10;99259.02;1783927;80;21695;-50
2022/01/03 08:07:56;;;;;;;17.75;10.60;;;;;;;3.36;85.10;99263.46;1787602;80;22231;-50
2022/01/03 08:11:09;;;;;;;13.75;8.98;;;;;;;3.41;85.11;99252.16;1764372;79;21408;-48
2022/01/03 08:14:22;;;;;;;14.28;9.43;;;;;;;3.46;85.04;99246.61;1789070;80;21377;-51
2022/01/03 08:17:29;;;;;;;12.28;8.70;;;;;;;3.50;85.02;99250.71;1789000;79;21262;-48
2022/01/03 08:20:35;;;;;;;15.18;10.23;;;;;;;3.54;85.03;99241.75;1789357;80;21363;-50
2022/01/03 08:23:43;;;;;;;16.48;9.20;;;;;;;3.59;85.05;99239.42;1790094;79;21258;-49
2022/01/03 08:26:52;;;;;;;15.00;9.43;;;;;;;3.64;85.07;99231.18;1798847;80;21263;-49
2022/01/03 08:29:58;;;;;;;13.22;8.93;;;;;;;3.68;85.14;99229.01;1796058;79;21381;-51
2022/01/03 08:33:04;;;;;;;14.73;9.33;;;;;;;3.74;85.15;99231.89;1789321;80;21388;-51
2022/01/03 08:36:11;;;;;;;15.78;9.50;;;;;;;3.75;85.01;99224.14;1789240;80;21361;-50
2022/01/03 08:39:16;;;;;;;16.73;10.08;;;;;;;3.76;85.10;99217.70;1771727;79;21458;-51
2022/01/03 08:42:26;;;;;;;18.05;11.18;;;;;;;3.74;85.02;99221.06;1789252;79;21199;-50
2022/01/03 08:45:31;;;;;;;20.97;13.00;;;;;;;3.70;85.04;99218.36;1789872;78;21444;-51
2022/01/03 08:48:39;;;;;;;19.65;10.88;;;;;;;3.67;85.15;99208.35;1788843;80;21325;-50
2022/01/03 08:51:43;;;;;;;19.62;12.47;;;;;;;3.66;85.33;99202.61;1788712;80;21199;-49
2022/01/03 08:54:49;;;;;;;17.87;13.08;;;;;;;3.69;85.45;99203.14;1788592;79;21609;-49
2022/01/03 08:57:57;;;;;;;17.35;11.08;;;;;;;3.73;85.53;99193.67;1789054;79;21819;-50
2022/01/03 09:01:03;;;;;;;16.40;10.35;;;;;;;3.78;85.50;99188.63;1789223;79;21361;-49
2022/01/03 09:04:09;;;;;;;16.30;11.03;;;;;;;3.80;85.50;99175.80;1768684;80;22021;-50
2022/01/03 09:07:15;;;;;;;21.00;12.45;;;;;;;3.81;85.51;99174.77;1750939;80;21393;-51
2022/01/03 09:10:22;;;;;;;15.60;9.98;;;;;;;3.82;85.62;99172.39;1742935;80;21374;-51
2022/01/03 09:13:27;;;;;;;19.55;11.78;;;;;;;3.85;85.67;99164.48;1768027;80;21822;-51
2022/01/03 09:16:35;;;;;;;18.12;11.08;;;;;;;3.83;85.74;99151.11;1729792;82;21536;-52
2022/01/03 09:19:43;;;;;;;17.25;10.63;;;;;;;3.84;85.84;99135.20;1811505;79;21222;-49
2022/01/03 09:22:53;;;;;;;17.35;10.58;;;;;;;3.87;85.90;99132.69;1811499;79;21197;-51
2022/01/03 09:29:24;;;;;;;15.72;10.70;;;;;;;3.89;86.10;99099.02;1811823;79;21205;-52
2022/01/03 09:32:29;;;;;;;17.15;10.82;;;;;;;3.95;86.20;99092.08;1811742;79;21289;-50
2022/01/03 09:35:36;;;;;;;16.12;10.82;;;;;;;4.02;86.20;99084.51;1811832;78;21792;-51
2022/01/03 09:38:41;;;;;;;15.53;10.98;;;;;;;4.10;86.13;99083.17;1811695;79;21186;-51
2022/01/03 09:41:53;;;;;;;16.87;10.90;;;;;;;4.14;85.97;99081.80;1810686;79;21793;-51
2022/01/03 09:45:02;;;;;;;19.27;11.90;;;;;;;4.15;85.90;99082.66;1751567;81;21733;-51
2022/01/03 09:48:13;;;;;;;19.80;11.33;;;;;;;4.15;85.77;99084.88;1775754;80;21679;-51
2022/01/03 09:51:19;;;;;;;20.20;12.00;;;;;;;4.13;85.75;99080.63;1775992;79;21912;-51
2022/01/03 09:54:26;;;;;;;14.75;10.45;;;;;;;4.07;85.68;99072.68;1767260;80;21721;-51
2022/01/03 09:57:32;;;;;;;19.57;11.90;;;;;;;4.05;85.75;99074.70;1798878;79;21808;-51
2022/01/03 10:00:38;;;;;;;19.52;12.50;;;;;;;4.04;85.73;99054.03;1784536;80;21361;-51
2022/01/03 10:03:47;;;;;;;18.73;12.50;;;;;;;4.04;85.76;99054.56;1783686;80;21226;-51
2022/01/03 10:06:53;;;;;;;19.07;12.23;;;;;;;4.04;85.80;99055.38;1782591;79;21215;-51
2022/01/03 10:10:02;;;;;;;18.12;11.18;;;;;;;4.05;85.84;99055.74;1781992;80;21552;-52
2022/01/03 10:13:09;;;;;;;19.90;12.63;;;;;;;4.05;85.85;99050.83;1782185;80;21196;-51
2022/01/03 10:16:15;;;;;;;19.82;12.25;;;;;;;4.08;85.91;99052.70;1787350;80;21602;-51
2022/01/03 10:19:22;;;;;;;21.65;12.88;;;;;;;4.12;85.82;99043.74;1787853;79;21202;-51
2022/01/03 10:22:33;;;;;;;21.45;13.15;;;;;;;4.14;85.76;99045.75;1787965;80;21794;-51
2022/01/03 10:25:38;;;;;;;17.75;11.65;;;;;;;4.14;85.65;99037.12;1788344;80;21400;-51
2022/01/03 10:28:43;;;;;;;18.57;11.75;;;;;;;4.19;85.66;99032.06;1788609;80;21163;-51
2022/01/03 10:31:57;;;;;;;18.80;11.63;;;;;;;4.25;85.58;99029.20;1787761;80;21285;-52
2022/01/03 10:35:06;;;;;;;18.07;10.80;;;;;;;4.29;85.39;99030.05;1787627;80;21182;-51
2022/01/03 10:38:15;;;;;;;15.90;11.28;;;;;;;4.32;85.22;99025.64;1768916;79;21282;-50
2022/01/03 10:41:25;;;;;;;17.00;10.93;;;;;;;4.35;85.10;99017.67;1817055;78;21732;-51
2022/01/03 10:44:45;;;;;;;17.62;10.63;;;;;;;4.37;84.93;99021.06;1817649;78;21328;-54
2022/01/03 10:47:50;;;;;;;17.55;11.57;;;;;;;4.37;84.77;99010.23;1817658;79;21758;-54
2022/01/03 10:50:56;;;;;;;18.07;11.33;;;;;;;4.42;84.74;98995.14;1810974;79;21174;-52
2022/01/03 10:54:04;;;;;;;19.75;12.58;;;;;;;4.51;84.56;98986.50;1786281;79;21244;-53
2022/01/03 10:57:10;;;;;;;22.98;13.68;;;;;;;4.61;84.41;98971.73;1805773;79;21222;-54
2022/01/03 11:00:26;;;;;;;22.73;13.78;;;;;;;4.72;84.18;98969.20;1787263;80;21404;-53
2022/01/03 11:03:42;;;;;;;19.17;12.63;;;;;;;4.76;83.78;98962.39;1796692;79;21332;-54
2022/01/03 11:13:24;;;;;;;22.60;13.62;;;;;;;4.91;82.99;98951.67;1747799;81;21426;-53
2022/01/03 11:16:31;;;;;;;17.75;11.68;;;;;;;4.96;82.68;98947.94;1767309;81;21417;-51
2022/01/03 11:19:45;;;;;;;18.40;11.78;;;;;;;5.01;82.52;98946.38;1731216;80;21181;-53
2022/01/03 11:22:56;;;;;;;19.92;11.65;;;;;;;5.05;82.29;98950.94;1766944;81;21322;-53
2022/01/03 11:26:02;;;;;;;19.52;12.85;;;;;;;5.09;82.12;98947.70;1766891;80;21220;-52
2022/01/03 11:29:08;;;;;;;26.93;15.25;;;;;;;5.12;81.86;98947.88;1767166;81;21942;-53
2022/01/03 11:32:15;;;;;;;21.65;14.95;;;;;;;5.15;81.65;98932.59;1767072;81;21212;-52
2022/01/03 11:35:20;;;;;;;16.87;11.83;;;;;;;5.16;81.42;98930.21;1766450;81;21346;-51
2022/01/03 11:38:30;;;;;;;15.85;10.63;;;;;;;5.20;81.36;98920.71;1766167;81;21176;-52
2022/01/03 11:41:38;;;;;;;17.50;11.05;;;;;;;5.21;81.12;98921.89;1766648;81;21279;-52
2022/01/03 11:44:43;;;;;;;16.25;10.58;;;;;;;5.20;80.97;98922.07;1766285;81;21792;-52
2022/01/03 11:47:49;;;;;;;18.07;11.90;;;;;;;5.17;80.79;98928.67;1766182;81;21291;-53
2022/01/03 11:50:58;;;;;;;16.20;11.20;;;;;;;5.11;80.79;98916.33;1767048;81;21349;-52
2022/01/03 11:54:03;;;;;;;16.27;10.43;;;;;;;5.09;80.90;98912.44;1767254;81;21189;-52
2022/01/03 11:57:39;;;;;;;15.65;10.93;;;;;;;5.05;80.92;98912.48;1749710;81;21510;-52
2022/01/03 12:03:58;;;;;;;14.60;9.88;;;;;;;5.07;81.05;98894.17;1752289;81;21813;-51
2022/01/03 12:07:25;;;;;;;15.45;10.53;;;;;;;5.10;81.04;98892.95;1738314;81;21185;-52
2022/01/03 12:10:35;;;;;;;14.87;10.03;;;;;;;5.09;80.90;98888.03;1738549;81;21205;-53
2022/01/03 12:14:06;;;;;;;22.13;13.25;;;;;;;5.11;80.94;98889.21;1737200;81;21193;-52
2022/01/03 12:17:14;;;;;;;24.35;14.15;;;;;;;5.16;80.88;98892.23;1753739;80;21204;-54
2022/01/03 12:20:21;;;;;;;21.33;13.22;;;;;;;5.16;80.75;98883.60;1757632;81;21189;-54
2022/01/03 12:23:46;;;;;;;26.68;15.63;;;;;;;5.17;80.72;98879.03;1758146;81;21197;-54
2022/01/03 12:26:57;;;;;;;25.08;15.65;;;;;;;5.19;80.66;98872.89;1757250;81;21224;-54
2022/01/03 12:30:10;;;;;;;;;;;;;;;5.19;80.60;98872.39;1759641;81;21169;-54
2022/01/03 12:33:19;;;;;;;19.30;13.00;;;;;;;5.24;80.61;98874.56;1786012;79;20197;-54
2022/01/03 12:36:25;;;;;;;15.25;11.10;;;;;;;5.25;80.60;98881.16;1735620;81;21756;-54
2022/01/03 12:39:32;;;;;;;17.23;12.10;;;;;;;5.26;80.43;98879.31;1768684;79;21725;-54
2022/01/03 12:43:01;;;;;;;17.27;11.80;;;;;;;5.23;80.40;98876.42;1766654;80;21375;-54
2022/01/03 12:46:08;;;;;;;16.23;10.90;;;;;;;5.22;80.50;98873.39;1765921;81;21201;-54
2022/01/03 12:49:36;;;;;;;15.80;10.90;;;;;;;5.23;80.52;98868.28;1767561;80;21869;-54
2022/01/03 12:52:47;;;;;;;19.02;11.88;;;;;;;5.23;80.52;98857.44;1767055;80;21312;-54
2022/01/03 12:55:56;;;;;;;15.68;11.73;;;;;;;5.25;80.60;98859.47;1767047;80;21343;-54
2022/01/03 12:59:01;;;;;;;17.05;11.35;;;;;;;5.28;80.62;98859.63;1767999;80;21225;-55
2022/01/03 13:02:33;;;;;;;19.20;12.65;;;;;;;5.32;80.54;98862.31;1799066;79;21698;-55
2022/01/03 13:05:41;;;;;;;22.25;15.30;;;;;;;5.33;80.57;98861.27;1803910;79;21441;-53
2022/01/03 13:08:53;;;;;;;17.50;12.37;;;;;;;5.33;80.50;98850.42;1763066;80;21900;-52
2022/01/03 13:12:05;;;;;;;18.87;12.45;;;;;;;5.33;80.47;98850.42;1804769;79;21228;-52
2022/01/03 13:15:09;;;;;;;22.00;12.58;;;;;;;5.34;80.43;98848.06;1775950;80;21196;-54
2022/01/03 13:18:24;;;;;;;18.82;11.18;;;;;;;5.31;80.37;98839.75;1801199;79;21184;-53
2022/01/03 13:21:36;;;;;;;25.65;14.30;;;;;;;5.30;80.42;98838.58;1807552;79;21339;-54
2022/01/03 13:24:54;;;;;;;30.50;15.63;;;;;;;5.28;80.43;98835.22;1800275;79;21221;-53
2022/01/03 13:28:00;;;;;;;27.62;14.50;;;;;;;5.28;80.46;98831.16;1800399;79;21184;-53
2022/01/03 13:31:10;;;;;;;22.35;13.62;;;;;;;5.31;80.50;98828.90;1800514;79;21405;-54
2022/01/03 13:34:17;;;;;;;23.57;13.78;;;;;;;5.32;80.47;98829.75;1756022;80;21197;-53
2022/01/03 13:37:25;;;;;;;20.92;13.68;;;;;;;5.32;80.49;98828.40;1766116;80;21343;-53
2022/01/03 13:40:30;;;;;;;21.82;15.10;;;;;;;5.31;80.51;98830.79;1766680;80;21205;-53
2022/01/03 13:43:39;;;;;;;22.13;12.75;;;;;;;5.31;80.51;98826.72;1766344;80;21323;-53
2022/01/03 13:50:09;;;;;;;20.20;12.65;;;;;;;5.30;80.53;98823.66;1767638;80;21687;-52
2022/01/03 13:53:15;;;;;;;24.32;15.25;;;;;;;5.29;80.57;98824.19;1782414;80;21319;-53
2022/01/03 13:56:23;;;;;;;21.70;13.38;;;;;;;5.30;80.64;98816.88;1811266;78;21553;-53
2022/01/03 13:59:35;;;;;;;19.57;13.22;;;;;;;5.30;80.61;98814.16;1811465;79;21322;-53
2022/01/03 14:02:42;;;;;;;20.37;13.60;;;;;;;5.29;80.67;98815.20;1799237;79;21722;-54
2022/01/03 14:05:50;;;;;;;25.45;15.83;;;;;;;5.28;80.72;98812.17;1777800;80;21343;-53
2022/01/03 14:08:59;;;;;;;23.40;13.58;;;;;;;5.27;80.80;98809.10;1818780;78;21302;-53
2022/01/03 14:12:20;;;;;;;20.72;13.28;;;;;;;5.26;80.86;98811.50;1756589;80;21461;-52
2022/01/03 14:15:26;;;;;;;22.25;13.13;;;;;;;5.22;80.98;98811.00;1782177;80;21343;-55
2022/01/03 14:18:43;;;;;;;18.92;12.50;;;;;;;5.20;81.16;98800.84;1743621;81;21142;-53
2022/01/03 14:21:51;;;;;;;22.07;13.43;;;;;;;5.20;81.28;98805.44;1736258;80;21201;-54
2022/01/03 14:25:21;;;;;;;20.32;13.15;;;;;;;5.21;81.43;98813.90;1804307;78;21169;-53
2022/01/03 14:28:30;;;;;;;20.45;12.15;;;;;;;5.20;81.54;98812.22;1799357;79;21892;-52
2022/01/03 14:32:03;;;;;;;18.83;11.47;;;;;;;5.19;81.86;98808.66;1797631;79;21333;-54
2022/01/03 14:35:08;;;;;;;23.10;13.72;;;;;;;5.17;82.30;98797.13;1733942;81;21738;-52
2022/01/03 14:38:19;;;;;;;23.02;14.38;;;;;;;5.13;82.82;98805.81;1732929;81;22013;-52
2022/01/03 14:41:34;;;;;;;36.15;19.15;;;;;;;5.11;83.29;98795.16;1753137;81;21267;-53
2022/01/03 14:44:42;;;;;;;36.58;18.32;;;;;;;5.10;83.69;98796.69;1753183;81;21328;-55
2022/01/03 14:47:50;;;;;;;25.75;15.35;;;;;;;5.07;84.05;98790.27;1733276;82;21248;-53
2022/01/03 14:50:59;;;;;;;25.52;15.28;;;;;;;5.02;84.35;98794.88;1741009;82;21888;-53
2022/01/03 14:54:36;;;;;;;24.65;15.95;;;;;;;5.00;84.63;98789.29;1746540;82;21276;-53
2022/01/03 14:57:40;;;;;;;22.90;16.55;;;;;;;4.97;84.79;98781.52;1782675;79;21205;-54
2022/01/03 15:00:46;;;;;;;23.60;15.20;;;;;;;4.96;85.00;98781.20;1787267;79;21264;-54
2022/01/03 15:03:52;;;;;;;21.12;13.65;;;;;;;4.96;85.10;98773.92;1802083;79;21358;-55
2022/01/03 15:06:59;;;;;;;22.93;14.80;;;;;;;4.96;85.19;98782.05;1801234;79;21373;-54